createdAt,value
2023-02-11T00:00:52.611Z,0.00
2023-02-11T00:01:52.556Z,0.00
2023-02-11T00:02:52.494Z,0.00
2023-02-11T00:03:52.488Z,0.00
2023-02-11T00:04:52.426Z,0.00
2023-02-11T00:05:52.550Z,0.00
2023-02-11T00:06:52.423Z,0.00
2023-02-11T00:07:52.600Z,0.00
2023-02-11T00:08:52.381Z,0.00
2023-02-11T00:09:52.381Z,0.00
2023-02-11T00:10:52.416Z,0.00
2023-02-11T00:11:52.358Z,0.00
2023-02-11T00:12:52.356Z,0.00
2023-02-11T00:13:52.393Z,0.00
2023-02-11T00:14:52.346Z,0.00
2023-02-11T00:15:52.518Z,0.00
2023-02-11T00:16:52.351Z,0.00
2023-02-11T00:17:52.310Z,0.00
2023-02-11T00:18:52.292Z,0.00
2023-02-11T00:19:52.316Z,0.00
2023-02-11T00:20:52.239Z,0.00
2023-02-11T00:21:52.243Z,0.00
2023-02-11T00:22:52.249Z,0.00
2023-02-11T00:23:52.246Z,0.00
2023-02-11T00:24:52.261Z,0.00
2023-02-11T00:25:52.601Z,0.00
2023-02-11T00:26:52.164Z,0.00
2023-02-11T00:27:52.171Z,0.00
2023-02-11T00:28:52.143Z,0.00
2023-02-11T00:29:52.210Z,0.00
2023-02-11T00:30:52.269Z,0.00
2023-02-11T00:31:52.267Z,0.00
2023-02-11T00:32:52.132Z,0.00
2023-02-11T00:33:52.117Z,0.00
2023-02-11T00:34:52.143Z,0.00
2023-02-11T00:35:52.456Z,0.00
2023-02-11T00:36:52.048Z,0.00
2023-02-11T00:37:52.102Z,0.00
2023-02-11T00:38:52.030Z,0.00
2023-02-11T00:39:52.241Z,0.00
2023-02-11T00:40:52.027Z,0.00
2023-02-11T00:41:52.026Z,0.00
2023-02-11T00:42:51.992Z,0.00
2023-02-11T00:43:51.996Z,0.00
2023-02-11T00:44:51.958Z,0.00
2023-02-11T00:45:52.345Z,0.00
2023-02-11T00:46:51.984Z,0.00
2023-02-11T00:47:51.959Z,0.00
2023-02-11T00:48:52.055Z,0.00
2023-02-11T00:49:51.909Z,0.00
2023-02-11T00:50:51.894Z,0.00
2023-02-11T00:51:51.913Z,0.00
2023-02-11T00:52:51.872Z,0.00
2023-02-11T00:53:51.937Z,0.00
2023-02-11T00:54:51.844Z,0.00
2023-02-11T00:55:52.176Z,0.00
2023-02-11T00:56:51.858Z,0.00
2023-02-11T00:57:51.828Z,0.00
2023-02-11T00:58:51.833Z,0.00
2023-02-11T00:59:51.826Z,0.00
2023-02-11T01:00:51.816Z,0.00
2023-02-11T01:01:51.787Z,0.00
2023-02-11T01:02:51.860Z,0.00
2023-02-11T01:03:51.789Z,0.00
2023-02-11T01:04:51.777Z,0.00
2023-02-11T01:05:52.102Z,0.00
2023-02-11T01:06:51.726Z,0.00
2023-02-11T01:07:51.738Z,0.00
2023-02-11T01:08:51.737Z,0.00
2023-02-11T01:09:51.694Z,0.00
2023-02-11T01:10:51.677Z,0.00
2023-02-11T01:11:51.667Z,0.00
2023-02-11T01:12:51.646Z,0.00
2023-02-11T01:13:51.658Z,0.00
2023-02-11T01:14:51.697Z,0.00
2023-02-11T01:15:58.836Z,0.00
2023-02-11T01:16:51.637Z,0.00
2023-02-11T01:17:51.624Z,0.00
2023-02-11T01:18:51.643Z,0.00
2023-02-11T01:19:51.593Z,0.00
2023-02-11T01:20:51.632Z,0.00
2023-02-11T01:21:51.642Z,0.00
2023-02-11T01:22:51.536Z,0.00
2023-02-11T01:23:51.554Z,0.00
2023-02-11T01:24:51.538Z,0.00
2023-02-11T01:25:51.804Z,0.00
2023-02-11T01:26:51.487Z,0.00
2023-02-11T01:27:51.543Z,0.00
2023-02-11T01:28:51.475Z,0.00
2023-02-11T01:29:51.540Z,0.00
2023-02-11T01:30:51.500Z,0.00
2023-02-11T01:31:51.513Z,0.00
2023-02-11T01:32:51.426Z,0.00
2023-02-11T01:33:51.446Z,0.00
2023-02-11T01:34:51.391Z,0.00
2023-02-11T01:35:51.780Z,0.00
2023-02-11T01:36:51.454Z,0.00
2023-02-11T01:37:51.572Z,0.00
2023-02-11T01:38:51.390Z,0.00
2023-02-11T01:39:51.376Z,0.00
2023-02-11T01:40:51.345Z,0.00
2023-02-11T01:41:51.346Z,0.00
2023-02-11T01:42:51.365Z,0.00
2023-02-11T01:43:51.365Z,0.00
2023-02-11T01:44:51.321Z,0.00
2023-02-11T01:45:51.601Z,0.00
2023-02-11T01:46:51.291Z,0.00
2023-02-11T01:47:51.290Z,0.00
2023-02-11T01:48:51.344Z,0.00
2023-02-11T01:49:51.222Z,0.00
2023-02-11T01:50:51.222Z,0.00
2023-02-11T01:51:51.235Z,0.00
2023-02-11T01:52:51.213Z,0.00
2023-02-11T01:53:51.212Z,0.00
2023-02-11T01:54:51.239Z,0.00
2023-02-11T01:55:51.489Z,0.00
2023-02-11T01:56:51.154Z,0.00
2023-02-11T01:57:51.133Z,0.00
2023-02-11T01:58:51.133Z,0.00
2023-02-11T01:59:51.167Z,0.00
2023-02-11T02:00:51.131Z,0.00
2023-02-11T02:01:51.107Z,0.00
2023-02-11T02:02:51.120Z,0.00
2023-02-11T02:03:51.100Z,0.00
2023-02-11T02:04:51.109Z,0.00
2023-02-11T02:05:51.452Z,0.00
2023-02-11T02:06:51.048Z,0.00
2023-02-11T02:07:51.048Z,0.00
2023-02-11T02:08:51.019Z,0.00
2023-02-11T02:09:51.076Z,0.00
2023-02-11T02:10:51.022Z,0.00
2023-02-11T02:11:50.966Z,0.00
2023-02-11T02:12:50.985Z,0.00
2023-02-11T02:13:50.978Z,0.00
2023-02-11T02:14:51.137Z,0.00
2023-02-11T02:15:51.285Z,0.00
2023-02-11T02:16:50.948Z,0.00
2023-02-11T02:17:51.004Z,0.00
2023-02-11T02:18:50.931Z,0.00
2023-02-11T02:19:50.881Z,0.00
2023-02-11T02:20:50.981Z,0.00
2023-02-11T02:21:50.856Z,0.00
2023-02-11T02:22:50.852Z,0.00
2023-02-11T02:23:50.834Z,0.00
2023-02-11T02:24:50.834Z,0.00
2023-02-11T02:25:51.112Z,0.00
2023-02-11T02:26:50.920Z,0.00
2023-02-11T02:27:50.785Z,0.00
2023-02-11T02:28:50.810Z,0.00
2023-02-11T02:29:50.766Z,0.00
2023-02-11T02:30:50.845Z,0.00
2023-02-11T02:31:50.866Z,0.00
2023-02-11T02:32:50.804Z,0.00
2023-02-11T02:33:50.716Z,0.00
2023-02-11T02:34:50.720Z,0.00
2023-02-11T02:35:50.953Z,0.00
2023-02-11T02:36:50.696Z,0.00
2023-02-11T02:37:50.734Z,0.00
2023-02-11T02:38:50.706Z,0.00
2023-02-11T02:39:50.674Z,0.00
2023-02-11T02:40:50.661Z,0.00
2023-02-11T02:41:50.665Z,0.00
2023-02-11T02:42:50.650Z,0.00
2023-02-11T02:43:50.624Z,0.00
2023-02-11T02:44:50.640Z,0.00
2023-02-11T02:45:50.918Z,0.00
2023-02-11T02:46:50.689Z,0.00
2023-02-11T02:47:50.584Z,0.00
2023-02-11T02:48:50.554Z,0.00
2023-02-11T02:49:50.564Z,0.00
2023-02-11T02:50:50.556Z,0.00
2023-02-11T02:51:50.538Z,0.00
2023-02-11T02:52:50.553Z,0.00
2023-02-11T02:53:50.524Z,0.00
2023-02-11T02:54:50.517Z,0.00
2023-02-11T02:55:50.798Z,0.00
2023-02-11T02:56:50.468Z,0.00
2023-02-11T02:57:50.522Z,0.00
2023-02-11T02:58:50.477Z,0.00
2023-02-11T02:59:50.447Z,0.00
2023-02-11T03:00:50.482Z,0.00
2023-02-11T03:01:50.404Z,0.00
2023-02-11T03:02:50.439Z,0.00
2023-02-11T03:03:50.399Z,0.00
2023-02-11T03:04:50.382Z,0.00
2023-02-11T03:05:50.734Z,0.00
2023-02-11T03:06:50.378Z,0.00
2023-02-11T03:07:50.362Z,0.00
2023-02-11T03:08:50.331Z,0.00
2023-02-11T03:09:50.330Z,0.00
2023-02-11T03:10:50.364Z,0.00
2023-02-11T03:11:50.321Z,0.00
2023-02-11T03:12:50.310Z,0.00
2023-02-11T03:13:50.314Z,0.00
2023-02-11T03:14:50.270Z,0.00
2023-02-11T03:15:50.822Z,0.00
2023-02-11T03:16:51.959Z,0.00
2023-02-11T03:17:50.216Z,0.00
2023-02-11T03:18:50.242Z,0.00
2023-02-11T03:19:50.227Z,0.00
2023-02-11T03:20:50.196Z,0.00
2023-02-11T03:21:50.202Z,0.00
2023-02-11T03:22:50.198Z,0.00
2023-02-11T03:23:50.172Z,0.00
2023-02-11T03:24:50.173Z,0.00
2023-02-11T03:25:50.461Z,0.00
2023-02-11T03:26:50.470Z,0.00
2023-02-11T03:27:50.105Z,0.00
2023-02-11T03:28:50.134Z,0.00
2023-02-11T03:29:50.077Z,0.00
2023-02-11T03:30:50.150Z,0.00
2023-02-11T03:31:50.110Z,0.00
2023-02-11T03:32:50.103Z,0.00
2023-02-11T03:33:50.036Z,0.00
2023-02-11T03:34:50.036Z,0.00
2023-02-11T03:35:50.328Z,0.00
2023-02-11T03:36:50.019Z,0.00
2023-02-11T03:37:50.168Z,0.00
2023-02-11T03:38:50.015Z,0.00
2023-02-11T03:39:49.969Z,0.00
2023-02-11T03:40:49.999Z,0.00
2023-02-11T03:41:49.975Z,0.00
2023-02-11T03:42:49.989Z,0.00
2023-02-11T03:43:49.951Z,0.00
2023-02-11T03:44:49.949Z,0.00
2023-02-11T03:45:50.328Z,0.00
2023-02-11T03:46:49.928Z,0.00
2023-02-11T03:47:49.898Z,0.00
2023-02-11T03:48:49.896Z,0.00
2023-02-11T03:49:49.852Z,0.00
2023-02-11T03:50:49.892Z,0.00
2023-02-11T03:51:49.881Z,0.00
2023-02-11T03:52:49.857Z,0.00
2023-02-11T03:53:49.806Z,0.00
2023-02-11T03:54:49.826Z,0.00
2023-02-11T03:55:50.094Z,0.00
2023-02-11T03:56:49.847Z,0.00
2023-02-11T03:57:49.830Z,0.00
2023-02-11T03:58:49.789Z,0.00
2023-02-11T03:59:49.742Z,0.00
2023-02-11T04:00:49.822Z,0.00
2023-02-11T04:01:49.717Z,0.00
2023-02-11T04:02:49.797Z,0.00
2023-02-11T04:03:49.693Z,0.00
2023-02-11T04:04:49.720Z,0.00
2023-02-11T04:05:50.062Z,0.00
2023-02-11T04:06:49.673Z,0.00
2023-02-11T04:07:49.860Z,0.00
2023-02-11T04:08:49.651Z,0.00
2023-02-11T04:09:49.626Z,0.00
2023-02-11T04:10:49.653Z,0.00
2023-02-11T04:11:49.629Z,0.00
2023-02-11T04:12:49.627Z,0.00
2023-02-11T04:13:49.629Z,0.00
2023-02-11T04:14:49.584Z,0.00
2023-02-11T04:15:49.684Z,0.00
2023-02-11T04:16:49.554Z,0.00
2023-02-11T04:17:49.583Z,0.00
2023-02-11T04:18:49.574Z,0.00
2023-02-11T04:19:49.546Z,0.00
2023-02-11T04:20:49.496Z,0.00
2023-02-11T04:21:49.539Z,0.00
2023-02-11T04:22:49.475Z,0.00
2023-02-11T04:23:49.516Z,0.00
2023-02-11T04:24:49.459Z,0.00
2023-02-11T04:25:49.741Z,0.00
2023-02-11T04:26:49.427Z,0.00
2023-02-11T04:27:49.455Z,0.00
2023-02-11T04:28:49.441Z,0.00
2023-02-11T04:29:49.409Z,0.00
2023-02-11T04:30:49.446Z,0.00
2023-02-11T04:31:49.433Z,0.00
2023-02-11T04:32:49.368Z,0.00
2023-02-11T04:33:49.425Z,0.00
2023-02-11T04:34:49.356Z,0.00
2023-02-11T04:35:49.680Z,0.00
2023-02-11T04:36:49.330Z,0.00
2023-02-11T04:37:49.420Z,0.00
2023-02-11T04:38:49.291Z,0.00
2023-02-11T04:39:49.299Z,0.00
2023-02-11T04:40:49.270Z,0.00
2023-02-11T04:41:49.274Z,0.00
2023-02-11T04:42:49.268Z,0.00
2023-02-11T04:43:52.755Z,0.00
2023-02-11T04:44:49.231Z,0.00
2023-02-11T04:45:49.652Z,0.00
2023-02-11T04:46:49.204Z,0.00
2023-02-11T04:47:49.228Z,0.00
2023-02-11T04:48:49.200Z,0.00
2023-02-11T04:49:49.182Z,0.00
2023-02-11T04:50:49.218Z,0.00
2023-02-11T04:51:49.727Z,0.00
2023-02-11T04:52:49.159Z,0.00
2023-02-11T04:53:49.134Z,0.00
2023-02-11T04:54:49.160Z,0.00
2023-02-11T04:55:49.345Z,0.00
2023-02-11T04:56:49.123Z,0.00
2023-02-11T04:57:49.088Z,0.00
2023-02-11T04:58:49.089Z,0.00
2023-02-11T04:59:49.083Z,0.00
2023-02-11T05:00:49.083Z,0.00
2023-02-11T05:01:49.102Z,0.00
2023-02-11T05:02:49.050Z,0.00
2023-02-11T05:03:49.050Z,0.00
2023-02-11T05:04:49.022Z,0.00
2023-02-11T05:05:49.383Z,0.00
2023-02-11T05:06:49.041Z,0.00
2023-02-11T05:07:48.975Z,0.00
2023-02-11T05:08:48.944Z,0.00
2023-02-11T05:09:48.946Z,0.00
2023-02-11T05:10:48.929Z,0.00
2023-02-11T05:11:48.959Z,0.00
2023-02-11T05:12:48.908Z,0.00
2023-02-11T05:13:48.922Z,0.00
2023-02-11T05:14:48.894Z,0.00
2023-02-11T05:15:49.297Z,0.00
2023-02-11T05:16:48.909Z,0.00
2023-02-11T05:17:48.884Z,0.00
2023-02-11T05:18:51.426Z,0.00
2023-02-11T05:19:48.891Z,0.00
2023-02-11T05:20:48.836Z,0.00
2023-02-11T05:22:01.624Z,0.00
2023-02-11T05:22:49.803Z,0.00
2023-02-11T05:23:48.790Z,0.00
2023-02-11T05:24:48.787Z,0.00
2023-02-11T05:25:49.088Z,0.00
2023-02-11T05:26:48.746Z,0.00
2023-02-11T05:27:48.817Z,0.00
2023-02-11T05:28:48.717Z,0.00
2023-02-11T05:29:48.754Z,0.00
2023-02-11T05:30:48.725Z,0.00
2023-02-11T05:31:48.694Z,0.00
2023-02-11T05:32:48.784Z,0.00
2023-02-11T05:33:48.705Z,0.00
2023-02-11T05:34:48.674Z,0.00
2023-02-11T05:35:48.925Z,0.00
2023-02-11T05:36:48.645Z,0.00
2023-02-11T05:37:48.890Z,0.00
2023-02-11T05:38:48.627Z,0.00
2023-02-11T05:39:48.633Z,0.00
2023-02-11T05:40:48.606Z,0.00
2023-02-11T05:41:48.580Z,0.00
2023-02-11T05:42:48.578Z,0.00
2023-02-11T05:43:48.579Z,0.00
2023-02-11T05:44:50.555Z,0.00
2023-02-11T05:45:48.823Z,0.00
2023-02-11T05:46:48.512Z,0.00
2023-02-11T05:47:48.531Z,0.00
2023-02-11T05:48:48.538Z,0.00
2023-02-11T05:49:48.517Z,0.00
2023-02-11T05:50:48.471Z,0.00
2023-02-11T05:51:48.503Z,0.00
2023-02-11T05:52:48.467Z,0.00
2023-02-11T05:53:48.472Z,0.00
2023-02-11T05:54:48.423Z,0.00
2023-02-11T05:55:48.645Z,0.00
2023-02-11T05:56:48.402Z,0.00
2023-02-11T05:57:48.446Z,0.00
2023-02-11T05:58:48.371Z,0.00
2023-02-11T05:59:48.450Z,0.00
2023-02-11T06:00:48.404Z,0.00
2023-02-11T06:01:48.382Z,0.00
2023-02-11T06:02:48.390Z,0.00
2023-02-11T06:03:48.392Z,0.00
2023-02-11T06:04:48.302Z,0.00
2023-02-11T06:05:48.599Z,0.00
2023-02-11T06:06:48.339Z,0.00
2023-02-11T06:07:48.281Z,0.00
2023-02-11T06:08:48.316Z,0.00
2023-02-11T06:09:48.319Z,0.00
2023-02-11T06:10:48.245Z,0.00
2023-02-11T06:11:48.234Z,0.00
2023-02-11T06:12:48.249Z,0.00
2023-02-11T06:13:48.251Z,0.00
2023-02-11T06:14:48.253Z,0.00
2023-02-11T06:15:48.526Z,0.00
2023-02-11T06:16:48.164Z,0.00
2023-02-11T06:17:48.168Z,0.00
2023-02-11T06:18:48.193Z,0.00
2023-02-11T06:19:48.190Z,0.00
2023-02-11T06:20:48.142Z,0.00
2023-02-11T06:21:48.143Z,0.00
2023-02-11T06:22:48.095Z,0.00
2023-02-11T06:23:48.095Z,0.00
2023-02-11T06:25:00.836Z,0.00
2023-02-11T06:25:49.677Z,0.00
2023-02-11T06:26:48.072Z,0.00
2023-02-11T06:27:48.086Z,0.00
2023-02-11T06:28:48.094Z,0.00
2023-02-11T06:29:48.075Z,0.00
2023-02-11T06:30:48.172Z,0.00
2023-02-11T06:31:48.155Z,0.00
2023-02-11T06:32:48.123Z,0.00
2023-02-11T06:33:47.988Z,0.00
2023-02-11T06:34:48.029Z,4.00
2023-02-11T06:35:48.071Z,4.00
2023-02-11T06:36:47.966Z,0.00
2023-02-11T06:37:47.965Z,0.00
2023-02-11T06:38:47.959Z,4.00
2023-02-11T06:39:47.930Z,4.00
2023-02-11T06:40:47.924Z,4.00
2023-02-11T06:41:47.919Z,8.00
2023-02-11T06:42:47.887Z,4.00
2023-02-11T06:43:47.872Z,4.00
2023-02-11T06:44:47.852Z,8.00
2023-02-11T06:45:47.937Z,8.00
2023-02-11T06:46:47.913Z,8.00
2023-02-11T06:47:47.847Z,8.00
2023-02-11T06:48:47.837Z,8.00
2023-02-11T06:49:47.820Z,8.00
2023-02-11T06:50:47.802Z,12.00
2023-02-11T06:51:47.777Z,16.00
2023-02-11T06:52:47.754Z,16.00
2023-02-11T06:53:47.759Z,20.00
2023-02-11T06:54:47.752Z,16.00
2023-02-11T06:55:47.826Z,20.00
2023-02-11T06:56:47.704Z,24.00
2023-02-11T06:57:47.749Z,24.00
2023-02-11T06:58:47.754Z,28.00
2023-02-11T06:59:47.722Z,28.00
2023-02-11T07:00:47.691Z,28.00
2023-02-11T07:01:47.684Z,28.00
2023-02-11T07:02:47.686Z,32.00
2023-02-11T07:03:47.849Z,40.00
2023-02-11T07:04:47.614Z,36.00
2023-02-11T07:05:47.649Z,36.00
2023-02-11T07:06:47.603Z,36.00
2023-02-11T07:07:47.610Z,40.00
2023-02-11T07:08:47.600Z,44.00
2023-02-11T07:09:47.598Z,48.00
2023-02-11T07:10:47.557Z,52.00
2023-02-11T07:11:47.578Z,56.00
2023-02-11T07:12:47.560Z,56.00
2023-02-11T07:13:47.569Z,60.00
2023-02-11T07:14:47.531Z,60.00
2023-02-11T07:15:47.613Z,68.00
2023-02-11T07:16:54.521Z,68.00
2023-02-11T07:17:47.517Z,64.00
2023-02-11T07:18:47.494Z,64.00
2023-02-11T07:19:47.583Z,68.00
2023-02-11T07:20:47.466Z,80.00
2023-02-11T07:21:47.459Z,84.00
2023-02-11T07:22:47.467Z,84.00
2023-02-11T07:23:47.417Z,80.00
2023-02-11T07:24:47.416Z,80.00
2023-02-11T07:25:47.413Z,88.00
2023-02-11T07:26:47.395Z,88.00
2023-02-11T07:27:47.453Z,92.00
2023-02-11T07:28:47.349Z,88.00
2023-02-11T07:29:47.372Z,96.00
2023-02-11T07:30:47.374Z,104.00
2023-02-11T07:31:47.453Z,112.00
2023-02-11T07:32:47.365Z,116.00
2023-02-11T07:33:47.306Z,120.00
2023-02-11T07:34:47.296Z,116.00
2023-02-11T07:35:47.278Z,116.00
2023-02-11T07:36:47.259Z,120.00
2023-02-11T07:37:47.318Z,140.00
2023-02-11T07:38:47.251Z,140.00
2023-02-11T07:39:47.228Z,156.00
2023-02-11T07:40:47.207Z,152.00
2023-02-11T07:41:47.209Z,156.00
2023-02-11T07:42:47.225Z,152.00
2023-02-11T07:43:47.214Z,156.00
2023-02-11T07:44:50.286Z,168.00
2023-02-11T07:45:47.159Z,180.00
2023-02-11T07:46:47.190Z,204.00
2023-02-11T07:47:47.192Z,200.00
2023-02-11T07:48:47.124Z,200.00
2023-02-11T07:49:47.121Z,200.00
2023-02-11T07:50:47.091Z,188.00
2023-02-11T07:51:47.129Z,180.00
2023-02-11T07:52:47.112Z,200.00
2023-02-11T07:53:47.112Z,236.00
2023-02-11T07:54:47.076Z,272.00
2023-02-11T07:55:47.064Z,292.00
2023-02-11T07:56:47.108Z,276.00
2023-02-11T07:57:47.065Z,304.00
2023-02-11T07:58:47.011Z,300.00
2023-02-11T07:59:47.015Z,316.00
2023-02-11T08:00:47.070Z,320.00
2023-02-11T08:01:47.021Z,308.00
2023-02-11T08:02:47.037Z,320.00
2023-02-11T08:03:46.987Z,316.00
2023-02-11T08:04:46.991Z,332.00
2023-02-11T08:05:46.968Z,364.00
2023-02-11T08:06:46.920Z,364.00
2023-02-11T08:07:46.981Z,340.00
2023-02-11T08:08:46.894Z,356.00
2023-02-11T08:09:46.916Z,336.00
2023-02-11T08:10:46.862Z,356.00
2023-02-11T08:11:46.875Z,364.00
2023-02-11T08:12:46.890Z,380.00
2023-02-11T08:13:46.861Z,404.00
2023-02-11T08:14:46.830Z,416.00
2023-02-11T08:15:46.849Z,444.00
2023-02-11T08:16:46.920Z,428.00
2023-02-11T08:17:46.800Z,480.00
2023-02-11T08:18:46.817Z,424.00
2023-02-11T08:19:46.782Z,452.00
2023-02-11T08:20:46.777Z,472.00
2023-02-11T08:21:46.747Z,488.00
2023-02-11T08:22:46.768Z,472.00
2023-02-11T08:23:46.788Z,440.00
2023-02-11T08:24:46.701Z,460.00
2023-02-11T08:25:46.729Z,496.00
2023-02-11T08:26:47.008Z,516.00
2023-02-11T08:27:46.670Z,480.00
2023-02-11T08:28:46.680Z,512.00
2023-02-11T08:29:46.698Z,536.00
2023-02-11T08:30:46.646Z,588.00
2023-02-11T08:31:46.781Z,608.00
2023-02-11T08:32:46.648Z,648.00
2023-02-11T08:33:46.616Z,556.00
2023-02-11T08:34:46.658Z,544.00
2023-02-11T08:35:46.572Z,476.00
2023-02-11T08:36:46.571Z,464.00
2023-02-11T08:37:46.579Z,500.00
2023-02-11T08:38:46.622Z,516.00
2023-02-11T08:39:46.600Z,544.00
2023-02-11T08:40:46.608Z,524.00
2023-02-11T08:41:46.537Z,484.00
2023-02-11T08:42:46.503Z,548.00
2023-02-11T08:43:46.519Z,556.00
2023-02-11T08:44:46.552Z,624.00
2023-02-11T08:45:46.564Z,648.00
2023-02-11T08:46:46.478Z,664.00
2023-02-11T08:47:46.461Z,696.00
2023-02-11T08:48:46.444Z,728.00
2023-02-11T08:49:46.471Z,644.00
2023-02-11T08:50:46.440Z,584.00
2023-02-11T08:51:46.419Z,620.00
2023-02-11T08:52:46.405Z,684.00
2023-02-11T08:53:46.402Z,820.00
2023-02-11T08:54:46.421Z,960.00
2023-02-11T08:55:46.346Z,1012.00
2023-02-11T08:56:46.385Z,900.00
2023-02-11T08:57:46.374Z,808.00
2023-02-11T08:58:46.326Z,812.00
2023-02-11T08:59:46.369Z,836.00
2023-02-11T09:00:46.317Z,1004.00
2023-02-11T09:01:46.312Z,1052.00
2023-02-11T09:02:46.312Z,1140.00
2023-02-11T09:03:46.354Z,1168.00
2023-02-11T09:04:46.257Z,1156.00
2023-02-11T09:05:46.595Z,1148.00
2023-02-11T09:06:46.265Z,1124.00
2023-02-11T09:07:46.238Z,1128.00
2023-02-11T09:08:46.520Z,1056.00
2023-02-11T09:09:46.263Z,1036.00
2023-02-11T09:10:46.273Z,1056.00
2023-02-11T09:11:46.268Z,1092.00
2023-02-11T09:12:46.243Z,1172.00
2023-02-11T09:13:46.178Z,1128.00
2023-02-11T09:14:46.198Z,1176.00
2023-02-11T09:15:46.168Z,1192.00
2023-02-11T09:16:46.339Z,1252.00
2023-02-11T09:17:46.123Z,1312.00
2023-02-11T09:18:46.117Z,1512.00
2023-02-11T09:19:46.105Z,1552.00
2023-02-11T09:20:46.107Z,1572.00
2023-02-11T09:21:46.097Z,1600.00
2023-02-11T09:22:46.070Z,1516.00
2023-02-11T09:23:46.055Z,1668.00
2023-02-11T09:24:46.048Z,1712.00
2023-02-11T09:25:46.029Z,1552.00
2023-02-11T09:26:46.077Z,1580.00
2023-02-11T09:27:45.982Z,1600.00
2023-02-11T09:28:46.005Z,1644.00
2023-02-11T09:29:45.992Z,1620.00
2023-02-11T09:30:46.046Z,1612.00
2023-02-11T09:31:46.087Z,1656.00
2023-02-11T09:32:45.963Z,1600.00
2023-02-11T09:33:45.913Z,1556.00
2023-02-11T09:34:45.938Z,1604.00
2023-02-11T09:35:45.911Z,1684.00
2023-02-11T09:36:45.897Z,1684.00
2023-02-11T09:37:45.921Z,1584.00
2023-02-11T09:38:45.891Z,1592.00
2023-02-11T09:39:45.837Z,1532.00
2023-02-11T09:40:45.854Z,1536.00
2023-02-11T09:41:45.852Z,1420.00
2023-02-11T09:42:45.880Z,1364.00
2023-02-11T09:43:45.799Z,1312.00
2023-02-11T09:44:45.804Z,1320.00
2023-02-11T09:45:45.829Z,1352.00
2023-02-11T09:46:45.822Z,1332.00
2023-02-11T09:47:45.755Z,1364.00
2023-02-11T09:48:45.756Z,1504.00
2023-02-11T09:49:45.763Z,1588.00
2023-02-11T09:50:45.731Z,1544.00
2023-02-11T09:51:45.702Z,1344.00
2023-02-11T09:52:45.745Z,1340.00
2023-02-11T09:53:45.688Z,1268.00
2023-02-11T09:54:45.735Z,1256.00
2023-02-11T09:55:45.686Z,1224.00
2023-02-11T09:56:45.659Z,1224.00
2023-02-11T09:57:45.653Z,1184.00
2023-02-11T09:58:45.722Z,1256.00
2023-02-11T09:59:45.653Z,1340.00
2023-02-11T10:00:45.675Z,1404.00
2023-02-11T10:01:45.630Z,1320.00
2023-02-11T10:02:45.594Z,1360.00
2023-02-11T10:03:45.605Z,1348.00
2023-02-11T10:04:45.590Z,1240.00
2023-02-11T10:05:45.592Z,1360.00
2023-02-11T10:06:45.541Z,1600.00
2023-02-11T10:07:45.527Z,1592.00
2023-02-11T10:08:45.562Z,1616.00
2023-02-11T10:09:45.502Z,1760.00
2023-02-11T10:10:45.518Z,1728.00
2023-02-11T10:11:45.503Z,1628.00
2023-02-11T10:12:45.504Z,1484.00
2023-02-11T10:13:45.454Z,1552.00
2023-02-11T10:14:45.482Z,1684.00
2023-02-11T10:15:45.514Z,1788.00
2023-02-11T10:16:45.445Z,1676.00
2023-02-11T10:17:45.435Z,1544.00
2023-02-11T10:18:45.420Z,1644.00
2023-02-11T10:19:45.420Z,1828.00
2023-02-11T10:20:45.387Z,1916.00
2023-02-11T10:21:45.379Z,1820.00
2023-02-11T10:22:45.377Z,1812.00
2023-02-11T10:23:45.390Z,1828.00
2023-02-11T10:24:45.343Z,1996.00
2023-02-11T10:25:45.696Z,2004.00
2023-02-11T10:26:45.332Z,2008.00
2023-02-11T10:27:45.288Z,2144.00
2023-02-11T10:28:45.501Z,2232.00
2023-02-11T10:29:45.583Z,2292.00
2023-02-11T10:30:45.423Z,2452.00
2023-02-11T10:31:45.351Z,2484.00
2023-02-11T10:32:45.238Z,2072.00
2023-02-11T10:33:45.247Z,1912.00
2023-02-11T10:34:45.273Z,1788.00
2023-02-11T10:35:45.198Z,1628.00
2023-02-11T10:36:45.220Z,1624.00
2023-02-11T10:37:45.206Z,1588.00
2023-02-11T10:38:45.243Z,1648.00
2023-02-11T10:39:45.151Z,1684.00
2023-02-11T10:40:45.231Z,1712.00
2023-02-11T10:41:45.136Z,1700.00
2023-02-11T10:42:45.121Z,1836.00
2023-02-11T10:43:45.120Z,1544.00
2023-02-11T10:44:45.127Z,1520.00
2023-02-11T10:45:45.143Z,1576.00
2023-02-11T10:46:45.193Z,1512.00
2023-02-11T10:47:45.081Z,1472.00
2023-02-11T10:48:45.081Z,1528.00
2023-02-11T10:49:45.063Z,1500.00
2023-02-11T10:50:45.269Z,1560.00
2023-02-11T10:51:45.038Z,1620.00
2023-02-11T10:52:45.072Z,1688.00
2023-02-11T10:53:45.009Z,1668.00
2023-02-11T10:54:45.024Z,1748.00
2023-02-11T10:55:44.972Z,1696.00
2023-02-11T10:56:44.962Z,1708.00
2023-02-11T10:57:44.971Z,1896.00
2023-02-11T10:58:44.968Z,1912.00
2023-02-11T10:59:44.926Z,1832.00
2023-02-11T11:00:44.973Z,1624.00
2023-02-11T11:01:44.935Z,1520.00
2023-02-11T11:02:44.900Z,1548.00
2023-02-11T11:03:44.873Z,1708.00
2023-02-11T11:04:45.081Z,1756.00
2023-02-11T11:05:44.918Z,1724.00
2023-02-11T11:06:44.867Z,1592.00
2023-02-11T11:07:44.853Z,1736.00
2023-02-11T11:08:44.842Z,1984.00
2023-02-11T11:09:44.797Z,1976.00
2023-02-11T11:10:44.826Z,1764.00
2023-02-11T11:11:44.778Z,1696.00
2023-02-11T11:12:44.826Z,1688.00
2023-02-11T11:13:44.784Z,1664.00
2023-02-11T11:14:44.795Z,1736.00
2023-02-11T11:15:44.820Z,1836.00
2023-02-11T11:16:44.738Z,1572.00
2023-02-11T11:17:44.733Z,1468.00
2023-02-11T11:18:44.876Z,1632.00
2023-02-11T11:19:44.714Z,1652.00
2023-02-11T11:20:44.687Z,1684.00
2023-02-11T11:21:44.668Z,1888.00
2023-02-11T11:22:44.695Z,1808.00
2023-02-11T11:23:44.665Z,1776.00
2023-02-11T11:24:44.807Z,1488.00
2023-02-11T11:25:44.618Z,1364.00
2023-02-11T11:26:44.620Z,1516.00
2023-02-11T11:27:44.593Z,1688.00
2023-02-11T11:28:44.625Z,1768.00
2023-02-11T11:29:44.590Z,1588.00
2023-02-11T11:30:44.609Z,1500.00
2023-02-11T11:31:44.570Z,1576.00
2023-02-11T11:32:44.581Z,1572.00
2023-02-11T11:33:44.561Z,1640.00
2023-02-11T11:34:44.537Z,1792.00
2023-02-11T11:35:44.547Z,1828.00
2023-02-11T11:36:44.524Z,1748.00
2023-02-11T11:37:44.477Z,1592.00
2023-02-11T11:38:44.503Z,1672.00
2023-02-11T11:39:44.468Z,1796.00
2023-02-11T11:40:44.489Z,1796.00
2023-02-11T11:41:44.455Z,1728.00
2023-02-11T11:42:44.430Z,1648.00
2023-02-11T11:43:44.402Z,1688.00
2023-02-11T11:44:44.462Z,1556.00
2023-02-11T11:45:44.377Z,1680.00
2023-02-11T11:46:44.441Z,1764.00
2023-02-11T11:47:44.402Z,1860.00
2023-02-11T11:48:44.357Z,1752.00
2023-02-11T11:49:44.354Z,1744.00
2023-02-11T11:50:44.365Z,1696.00
2023-02-11T11:51:44.336Z,1808.00
2023-02-11T11:52:44.327Z,1692.00
2023-02-11T11:53:44.288Z,1792.00
2023-02-11T11:54:44.288Z,1704.00
2023-02-11T11:55:44.264Z,1792.00
2023-02-11T11:57:19.906Z,1776.00
2023-02-11T11:57:44.276Z,1752.00
2023-02-11T11:58:44.278Z,1700.00
2023-02-11T11:59:44.229Z,1712.00
2023-02-11T12:00:44.207Z,1792.00
2023-02-11T12:01:44.295Z,1828.00
2023-02-11T12:02:44.246Z,1856.00
2023-02-11T12:03:44.189Z,1824.00
2023-02-11T12:04:44.197Z,1904.00
2023-02-11T12:05:44.157Z,1868.00
2023-02-11T12:06:44.168Z,1872.00
2023-02-11T12:07:44.160Z,1852.00
2023-02-11T12:08:44.115Z,1868.00
2023-02-11T12:09:44.137Z,1844.00
2023-02-11T12:10:44.112Z,1856.00
2023-02-11T12:11:44.157Z,1920.00
2023-02-11T12:12:46.548Z,1724.00
2023-02-11T12:13:44.103Z,1804.00
2023-02-11T12:14:44.061Z,1868.00
2023-02-11T12:15:44.081Z,1804.00
2023-02-11T12:16:44.060Z,1732.00
2023-02-11T12:17:44.013Z,1816.00
2023-02-11T12:18:47.235Z,1964.00
2023-02-11T12:19:43.993Z,1792.00
2023-02-11T12:20:44.365Z,1648.00
2023-02-11T12:21:43.971Z,1680.00
2023-02-11T12:22:43.969Z,1908.00
2023-02-11T12:23:43.944Z,1988.00
2023-02-11T12:24:43.923Z,1808.00
2023-02-11T12:25:43.920Z,1808.00
2023-02-11T12:26:43.914Z,1900.00
2023-02-11T12:28:54.964Z,2004.00
2023-02-11T12:29:54.937Z,1896.00
2023-02-11T12:30:54.989Z,1904.00
2023-02-11T12:31:55.009Z,1888.00
2023-02-11T12:32:54.919Z,1640.00
2023-02-11T12:33:54.927Z,1588.00
2023-02-11T12:34:54.899Z,1700.00
2023-02-11T12:35:54.900Z,1852.00
2023-02-11T12:36:54.900Z,1968.00
2023-02-11T12:37:54.878Z,2080.00
2023-02-11T12:38:54.820Z,1948.00
2023-02-11T12:39:54.849Z,2136.00
2023-02-11T12:40:54.831Z,2096.00
2023-02-11T12:41:54.793Z,2124.00
2023-02-11T12:42:54.794Z,1916.00
2023-02-11T12:43:54.803Z,1816.00
2023-02-11T12:44:54.760Z,1772.00
2023-02-11T12:45:54.805Z,1740.00
2023-02-11T12:46:54.729Z,1856.00
2023-02-11T12:47:54.756Z,1936.00
2023-02-11T12:48:54.704Z,1748.00
2023-02-11T12:49:54.704Z,1724.00